Pagrindinis puslapis
METAR-TAF:

METAR-TAF

Oro uostai :

Arika, Čilė

platuma: 18-20S, ilguma: 070-20W, Aukštis: 58 m

Dabartinis oras

Ataskaita buvo paskelbta 42 minutes, ne 06:00 UTC
Vėjas 5 kt iš Vakarų/Šiaurės Vakarų
Temperatūra 19°C
Drėgmė 68%
Slėgis 1017 hPa
Matomumas 10 km arba daugiau
Apsiniaukę ne aukštis 3700 ft

METAR: SCAR 080600Z 30005KT 9999 OVC037 19/13 Q1017

Laikas: 02:42 (06:42 UTC)

Prognozė

Ataskaita buvo paskelbta 2 valandos ir 33 minutes, ne 04:09 UTC
Prognozė galioja nuo 08 metu 06 UTC su 09 metu 06 UTC
Vėjas 4 kt iš Šiaurės Vakarų
Matomumas 10 km arba daugiau
Apsiniaukę ne aukštis 4000 ft
Tapsmas
nuo 08 metu 12 UTC su 08 metu 14 UTC
Vėjas 4 kt iš Pietryčių
Matomumas 10 km arba daugiau
nėra debesų žemiau 1500 m ir nėra kamuolinių lietaus debesų
Tapsmas
nuo 08 metu 15 UTC su 08 metu 17 UTC
Vėjas 10 kt iš Pietvakarių
Tapsmas
nuo 09 metu 00 UTC su 09 metu 02 UTC
Vėjas 4 kt iš Pietryčių

TAF: SCAR 080409Z 0806/0906 32004KT 9999 OVC040 TN18/0810Z TX21/0818Z BECMG 0812/0814 13004KT CAVOK BECMG 0815/0817 22010KT BECMG 0900/0902 14004KT

Orai ataskaitas ir orų prognozės (METAR, TAF).

turimą stotys yra geltonos ir raudonos taškus žemėlapyje.

Perkelti pele per norėdami pamatyti stoties vardą.

Tada spustelėkite, norėdami matyti oro stebėjimo ir prognozės.

Norėdami pakeisti žemėlapį: spustelėkite ant žalios mygtukų su juodo kryžiaus žemyn,; žalią mygtuką su brūkšneliu, jei norite nutolinti; arba žalių rodyklių gretimoms žemėlapius.


METAR-TAF: